Avera, Georgia
Current Conditions -  °F | °C
As of 1:55 PM on Monday 20 Oct 2014 (Local Time) from KOKZ Reporting Station
Clear Clear  
Wind Chill: 72°   Ceiling: Unl
Heat Index: 72°   Visibility: 10mi
Dew Point: 50°   Wind: 7mph
Humidity: 45%   Direction: 260°W
Pressure: 30.08"   Gusts: NA
Location:  33.19°N, 82.53°W
Report Text: KOKZ 201755Z AUTO 26006KT 10SM CLR 22/10 A3008 RMK AO2 T02240100 10226 20071
Loading
Personal Weather Stations






























Interactive Weather Map New forecast layout! Learn more

10-Day Weather Forecast

Advertisements
Track Severe Weather on mobile